Rosy — 8PAN6 — position and weather

sailwx.info

Track history (hours):
 
Tides and Currents Weather Stations Pressure Air Temp Water Temp Dewpoint Dewpoint Depression Visibility Wind Speed Wind Dir Waves Ship Positions

Rosy

Last reported at 2017-Nov-10 20:51 UTC. Time now 2017-Nov-24 23:52 UTC.
Position N 10°58' W 074°46'.
Warning: this ship's position is 14 days out of date.

Length 164 m; draft 6.3 m.

Type: Ship. MMSI: 314445000.

Date/timePositionNaut miles runAvg speedWind from/ knotsBaromVisibWave heightAir tempDewpointWater temp
2017-Nov-10 20:51N 10°58' W 074°46'0 0.0
2017-Nov-10 20:30N 10°58' W 074°46'0 0.0
2017-Nov-10 20:00N 10°58' W 074°46'0 0.0
2017-Nov-10 19:30N 10°58' W 074°46'0 0.0
2017-Nov-10 19:00N 10°58' W 074°46'0 0.0
2017-Nov-10 18:30N 10°58' W 074°46'0 0.0
2017-Nov-10 18:00N 10°58' W 074°46'0 0.0
2017-Nov-10 17:30N 10°58' W 074°46'0 0.0
2017-Nov-10 17:00N 10°58' W 074°46'0 0.0
2017-Nov-10 16:30N 10°58' W 074°46'0 0.0
2017-Nov-10 16:00N 10°58' W 074°46'0 0.0
2017-Nov-10 15:30N 10°58' W 074°46'0 0.0
2017-Nov-10 15:00N 10°58' W 074°46'0 0.0
2017-Nov-10 14:30N 10°58' W 074°46'0 0.1
2017-Nov-10 14:00N 10°58' W 074°45'1 2.0
2017-Nov-10 13:30N 10°59' W 074°46'3 6.7
2017-Nov-10 13:00N 11°02' W 074°48'1 0.0
2017-Nov-08 17:18N 11°02' W 074°48'0 0.1
2017-Nov-08 17:00N 11°02' W 074°48'1 1.5
2017-Nov-08 16:30N 11°02' W 074°49'3 6.9
2017-Nov-08 16:00N 11°05' W 074°51'3 5.3
2017-Nov-08 15:30N 11°07' W 074°53'611.3
2017-Nov-08 15:00N 11°03' W 074°49'6 1.7
2017-Nov-08 11:19N 10°57' W 074°46'0 0.0
2017-Nov-07 19:39N 10°57' W 074°46'0 0.1
2017-Nov-07 19:30N 10°57' W 074°45'0 0.5
2017-Nov-07 19:00N 10°57' W 074°45'4 5.6
2017-Nov-07 18:19N 11°01' W 074°47'3 8.4
2017-Nov-07 18:00N 11°02' W 074°49'4 7.5
2017-Nov-07 17:30N 11°06' W 074°51'4 8.1
2017-Nov-07 17:00N 11°08' W 074°54'0 0.7
2017-Nov-07 16:29N 11°09' W 074°54'1 3.1
2017-Nov-07 16:01N 11°07' W 074°54'5 9.8
2017-Nov-07 15:30N 11°11' W 074°50'612.6
2017-Nov-07 15:00N 11°15' W 074°45'1012.7
2017-Nov-07 14:12N 11°23' W 074°38'312.8
2017-Nov-07 14:00N 11°25' W 074°37'  
Track history (hours):
 
Tides and Currents Weather Stations Pressure Air Temp Water Temp Dewpoint Dewpoint Depression Visibility Wind Speed Wind Dir Waves Ship Positions

Rosy

Last reported at 2017-Nov-10 20:51 UTC. Time now 2017-Nov-24 23:52 UTC.
Position N 10°58' W 074°46'.
Warning: this ship's position is 14 days out of date.

Length 164 m; draft 6.3 m.

Type: Ship. MMSI: 314445000.

Date/timePositionNaut miles runAvg speedWind from/ knotsBaromVisibWave heightAir tempDewpointWater temp
2017-Nov-10 20:51N 10°58' W 074°46'0 0.0
2017-Nov-10 20:30N 10°58' W 074°46'0 0.0
2017-Nov-10 20:00N 10°58' W 074°46'0 0.0
2017-Nov-10 19:30N 10°58' W 074°46'0 0.0
2017-Nov-10 19:00N 10°58' W 074°46'0 0.0
2017-Nov-10 18:30N 10°58' W 074°46'0 0.0
2017-Nov-10 18:00N 10°58' W 074°46'0 0.0
2017-Nov-10 17:30N 10°58' W 074°46'0 0.0
2017-Nov-10 17:00N 10°58' W 074°46'0 0.0
2017-Nov-10 16:30N 10°58' W 074°46'0 0.0
2017-Nov-10 16:00N 10°58' W 074°46'0 0.0
2017-Nov-10 15:30N 10°58' W 074°46'0 0.0
2017-Nov-10 15:00N 10°58' W 074°46'0 0.0
2017-Nov-10 14:30N 10°58' W 074°46'0 0.1
2017-Nov-10 14:00N 10°58' W 074°45'1 2.0
2017-Nov-10 13:30N 10°59' W 074°46'3 6.7
2017-Nov-10 13:00N 11°02' W 074°48'1 0.0
2017-Nov-08 17:18N 11°02' W 074°48'0 0.1
2017-Nov-08 17:00N 11°02' W 074°48'1 1.5
2017-Nov-08 16:30N 11°02' W 074°49'3 6.9
2017-Nov-08 16:00N 11°05' W 074°51'3 5.3
2017-Nov-08 15:30N 11°07' W 074°53'611.3
2017-Nov-08 15:00N 11°03' W 074°49'6 1.7
2017-Nov-08 11:19N 10°57' W 074°46'0 0.0
2017-Nov-07 19:39N 10°57' W 074°46'0 0.1
2017-Nov-07 19:30N 10°57' W 074°45'0 0.5
2017-Nov-07 19:00N 10°57' W 074°45'4 5.6
2017-Nov-07 18:19N 11°01' W 074°47'3 8.4
2017-Nov-07 18:00N 11°02' W 074°49'4 7.5
2017-Nov-07 17:30N 11°06' W 074°51'4 8.1
2017-Nov-07 17:00N 11°08' W 074°54'0 0.7
2017-Nov-07 16:29N 11°09' W 074°54'1 3.1
2017-Nov-07 16:01N 11°07' W 074°54'5 9.8
2017-Nov-07 15:30N 11°11' W 074°50'612.6
2017-Nov-07 15:00N 11°15' W 074°45'1012.7
2017-Nov-07 14:12N 11°23' W 074°38'312.8
2017-Nov-07 14:00N 11°25' W 074°37'  

Dump ship's entire track history